sensor_id;sensor_type;location;lat;lon;timestamp;P1;durP1;ratioP1;P2;durP2;ratioP2
20954;SDS011;10636;19.390;-99.256;2023-09-18T00:01:57;19.85;;;18.38;;
20954;SDS011;10636;19.390;-99.256;2023-09-18T00:04:25;18.98;;;17.58;;
20954;SDS011;10636;19.390;-99.256;2023-09-18T00:06:54;19.90;;;18.38;;
20954;SDS011;10636;19.390;-99.256;2023-09-18T00:09:22;18.40;;;17.10;;
20954;SDS011;10636;19.390;-99.256;2023-09-18T00:11:51;13.95;;;12.70;;
20954;SDS011;10636;19.390;-99.256;2023-09-18T00:14:20;19.42;;;17.98;;
20954;SDS011;10636;19.390;-99.256;2023-09-18T00:16:51;18.83;;;17.42;;
20954;SDS011;10636;19.390;-99.256;2023-09-18T00:19:19;14.38;;;12.98;;
20954;SDS011;10636;19.390;-99.256;2023-09-18T00:21:52;17.80;;;16.53;;
20954;SDS011;10636;19.390;-99.256;2023-09-18T00:24:26;18.05;;;16.67;;
20954;SDS011;10636;19.390;-99.256;2023-09-18T00:26:55;19.25;;;17.92;;
20954;SDS011;10636;19.390;-99.256;2023-09-18T00:29:24;13.55;;;12.25;;
20954;SDS011;10636;19.390;-99.256;2023-09-18T00:31:55;17.52;;;16.33;;
20954;SDS011;10636;19.390;-99.256;2023-09-18T00:34:24;13.40;;;12.20;;
20954;SDS011;10636;19.390;-99.256;2023-09-18T00:36:53;13.85;;;12.65;;
20954;SDS011;10636;19.390;-99.256;2023-09-18T00:39:22;13.65;;;12.25;;
20954;SDS011;10636;19.390;-99.256;2023-09-18T00:41:53;13.70;;;12.50;;
20954;SDS011;10636;19.390;-99.256;2023-09-18T00:44:22;14.40;;;13.10;;
20954;SDS011;10636;19.390;-99.256;2023-09-18T00:46:52;13.73;;;12.43;;
20954;SDS011;10636;19.390;-99.256;2023-09-18T00:49:24;18.55;;;17.17;;
20954;SDS011;10636;19.390;-99.256;2023-09-18T00:51:53;18.45;;;17.00;;
20954;SDS011;10636;19.390;-99.256;2023-09-18T00:54:21;19.05;;;17.73;;
20954;SDS011;10636;19.390;-99.256;2023-09-18T00:56:50;14.25;;;12.88;;
20954;SDS011;10636;19.390;-99.256;2023-09-18T00:59:21;17.35;;;16.10;;
20954;SDS011;10636;19.390;-99.256;2023-09-18T01:01:50;18.20;;;16.80;;
20954;SDS011;10636;19.390;-99.256;2023-09-18T01:04:19;18.90;;;17.60;;
20954;SDS011;10636;19.390;-99.256;2023-09-18T01:06:50;13.55;;;12.25;;
20954;SDS011;10636;19.390;-99.256;2023-09-18T01:09:22;17.90;;;16.60;;
20954;SDS011;10636;19.390;-99.256;2023-09-18T01:11:52;18.63;;;17.33;;
20954;SDS011;10636;19.390;-99.256;2023-09-18T01:14:35;16.55;;;15.35;;
20954;SDS011;10636;19.390;-99.256;2023-09-18T01:17:09;12.25;;;11.25;;
20954;SDS011;10636;19.390;-99.256;2023-09-18T01:19:40;12.60;;;11.50;;
20954;SDS011;10636;19.390;-99.256;2023-09-18T01:22:13;12.43;;;11.32;;
20954;SDS011;10636;19.390;-99.256;2023-09-18T01:24:44;12.70;;;11.55;;
20954;SDS011;10636;19.390;-99.256;2023-09-18T01:27:14;18.10;;;16.90;;
20954;SDS011;10636;19.390;-99.256;2023-09-18T01:29:45;18.63;;;17.13;;
20954;SDS011;10636;19.390;-99.256;2023-09-18T01:32:15;13.50;;;12.25;;
20954;SDS011;10636;19.390;-99.256;2023-09-18T01:34:46;14.05;;;12.63;;
20954;SDS011;10636;19.390;-99.256;2023-09-18T01:37:16;18.52;;;17.23;;
20954;SDS011;10636;19.390;-99.256;2023-09-18T01:39:49;17.83;;;16.60;;
20954;SDS011;10636;19.390;-99.256;2023-09-18T01:42:18;13.05;;;11.85;;
20954;SDS011;10636;19.390;-99.256;2023-09-18T01:44:47;14.52;;;13.13;;
20954;SDS011;10636;19.390;-99.256;2023-09-18T01:47:17;18.05;;;16.75;;
20954;SDS011;10636;19.390;-99.256;2023-09-18T01:49:48;14.07;;;12.75;;
20954;SDS011;10636;19.390;-99.256;2023-09-18T01:52:18;14.40;;;13.23;;
20954;SDS011;10636;19.390;-99.256;2023-09-18T01:54:48;19.38;;;18.00;;
20954;SDS011;10636;19.390;-99.256;2023-09-18T01:57:17;14.93;;;13.57;;
20954;SDS011;10636;19.390;-99.256;2023-09-18T01:59:46;15.40;;;14.00;;
20954;SDS011;10636;19.390;-99.256;2023-09-18T02:02:15;20.58;;;19.08;;
20954;SDS011;10636;19.390;-99.256;2023-09-18T02:04:43;15.60;;;14.10;;
20954;SDS011;10636;19.390;-99.256;2023-09-18T02:07:14;21.00;;;19.27;;
20954;SDS011;10636;19.390;-99.256;2023-09-18T02:09:42;20.42;;;18.92;;
20954;SDS011;10636;19.390;-99.256;2023-09-18T02:12:14;19.75;;;18.15;;
20954;SDS011;10636;19.390;-99.256;2023-09-18T02:14:44;21.88;;;20.33;;
20954;SDS011;10636;19.390;-99.256;2023-09-18T02:17:12;20.48;;;18.98;;
20954;SDS011;10636;19.390;-99.256;2023-09-18T02:19:41;16.20;;;14.70;;
20954;SDS011;10636;19.390;-99.256;2023-09-18T02:22:10;15.70;;;14.30;;
20954;SDS011;10636;19.390;-99.256;2023-09-18T02:24:39;21.17;;;19.52;;
20954;SDS011;10636;19.390;-99.256;2023-09-18T02:27:07;21.33;;;19.63;;
20954;SDS011;10636;19.390;-99.256;2023-09-18T02:29:39;20.17;;;18.52;;
20954;SDS011;10636;19.390;-99.256;2023-09-18T02:32:07;16.17;;;14.68;;
20954;SDS011;10636;19.390;-99.256;2023-09-18T02:34:37;15.38;;;13.88;;
20954;SDS011;10636;19.390;-99.256;2023-09-18T02:37:05;20.13;;;18.73;;
20954;SDS011;10636;19.390;-99.256;2023-09-18T02:39:34;20.15;;;18.65;;
20954;SDS011;10636;19.390;-99.256;2023-09-18T02:42:03;15.52;;;14.13;;
20954;SDS011;10636;19.390;-99.256;2023-09-18T02:44:31;15.30;;;13.88;;
20954;SDS011;10636;19.390;-99.256;2023-09-18T02:47:01;20.02;;;18.60;;
20954;SDS011;10636;19.390;-99.256;2023-09-18T02:49:30;19.20;;;17.70;;
20954;SDS011;10636;19.390;-99.256;2023-09-18T02:51:59;14.63;;;13.23;;
20954;SDS011;10636;19.390;-99.256;2023-09-18T02:54:28;15.00;;;13.50;;
20954;SDS011;10636;19.390;-99.256;2023-09-18T02:56:57;15.68;;;14.27;;
20954;SDS011;10636;19.390;-99.256;2023-09-18T02:59:25;21.30;;;19.70;;
20954;SDS011;10636;19.390;-99.256;2023-09-18T03:01:54;20.70;;;19.05;;
20954;SDS011;10636;19.390;-99.256;2023-09-18T03:04:25;20.58;;;19.08;;
20954;SDS011;10636;19.390;-99.256;2023-09-18T03:06:53;17.30;;;15.68;;
20954;SDS011;10636;19.390;-99.256;2023-09-18T03:09:22;17.95;;;16.17;;
20954;SDS011;10636;19.390;-99.256;2023-09-18T03:11:50;17.70;;;16.10;;
20954;SDS011;10636;19.390;-99.256;2023-09-18T03:14:19;21.88;;;20.27;;
20954;SDS011;10636;19.390;-99.256;2023-09-18T03:16:47;21.38;;;19.80;;
20954;SDS011;10636;19.390;-99.256;2023-09-18T03:19:16;22.55;;;20.85;;
20954;SDS011;10636;19.390;-99.256;2023-09-18T03:21:46;20.60;;;19.10;;
20954;SDS011;10636;19.390;-99.256;2023-09-18T03:24:15;20.38;;;18.85;;
20954;SDS011;10636;19.390;-99.256;2023-09-18T03:26:43;20.70;;;19.20;;
20954;SDS011;10636;19.390;-99.256;2023-09-18T03:29:12;16.50;;;14.90;;
20954;SDS011;10636;19.390;-99.256;2023-09-18T03:31:40;16.42;;;14.90;;
20954;SDS011;10636;19.390;-99.256;2023-09-18T03:34:09;21.02;;;19.60;;
20954;SDS011;10636;19.390;-99.256;2023-09-18T03:36:38;16.35;;;14.13;;
20954;SDS011;10636;19.390;-99.256;2023-09-18T03:39:08;15.60;;;14.18;;
20954;SDS011;10636;19.390;-99.256;2023-09-18T03:41:37;19.33;;;17.83;;
20954;SDS011;10636;19.390;-99.256;2023-09-18T03:44:05;14.80;;;13.32;;
20954;SDS011;10636;19.390;-99.256;2023-09-18T03:46:35;14.80;;;13.50;;
20954;SDS011;10636;19.390;-99.256;2023-09-18T03:49:04;17.95;;;16.55;;
20954;SDS011;10636;19.390;-99.256;2023-09-18T03:51:33;19.05;;;17.73;;
20954;SDS011;10636;19.390;-99.256;2023-09-18T03:54:01;18.88;;;17.58;;
20954;SDS011;10636;19.390;-99.256;2023-09-18T03:56:32;14.48;;;13.15;;
20954;SDS011;10636;19.390;-99.256;2023-09-18T03:59:00;18.65;;;17.33;;
20954;SDS011;10636;19.390;-99.256;2023-09-18T04:01:30;17.58;;;16.27;;
20954;SDS011;10636;19.390;-99.256;2023-09-18T04:03:58;18.60;;;17.30;;
20954;SDS011;10636;19.390;-99.256;2023-09-18T04:06:35;14.40;;;13.10;;
20954;SDS011;10636;19.390;-99.256;2023-09-18T04:09:04;14.38;;;13.07;;
20954;SDS011;10636;19.390;-99.256;2023-09-18T04:11:35;17.73;;;16.40;;
20954;SDS011;10636;19.390;-99.256;2023-09-18T04:14:03;18.08;;;16.75;;
20954;SDS011;10636;19.390;-99.256;2023-09-18T04:16:32;17.92;;;16.65;;
20954;SDS011;10636;19.390;-99.256;2023-09-18T04:19:01;16.73;;;15.52;;
20954;SDS011;10636;19.390;-99.256;2023-09-18T04:21:30;16.88;;;15.77;;
20954;SDS011;10636;19.390;-99.256;2023-09-18T04:23:58;17.52;;;16.23;;
20954;SDS011;10636;19.390;-99.256;2023-09-18T04:26:27;13.43;;;12.23;;
20954;SDS011;10636;19.390;-99.256;2023-09-18T04:28:59;12.98;;;11.88;;
20954;SDS011;10636;19.390;-99.256;2023-09-18T04:31:28;16.92;;;15.73;;
20954;SDS011;10636;19.390;-99.256;2023-09-18T04:33:57;17.00;;;15.88;;
20954;SDS011;10636;19.390;-99.256;2023-09-18T04:36:26;17.08;;;15.88;;
20954;SDS011;10636;19.390;-99.256;2023-09-18T04:38:54;17.50;;;16.30;;
20954;SDS011;10636;19.390;-99.256;2023-09-18T04:41:23;17.00;;;15.90;;
20954;SDS011;10636;19.390;-99.256;2023-09-18T04:43:51;12.35;;;11.25;;
20954;SDS011;10636;19.390;-99.256;2023-09-18T04:46:22;15.85;;;14.75;;
20954;SDS011;10636;19.390;-99.256;2023-09-18T04:48:51;17.08;;;15.98;;
20954;SDS011;10636;19.390;-99.256;2023-09-18T04:51:19;16.35;;;15.15;;
20954;SDS011;10636;19.390;-99.256;2023-09-18T04:53:48;16.52;;;15.43;;
20954;SDS011;10636;19.390;-99.256;2023-09-18T04:56:17;16.73;;;15.52;;
20954;SDS011;10636;19.390;-99.256;2023-09-18T04:58:46;16.73;;;15.57;;
20954;SDS011;10636;19.390;-99.256;2023-09-18T05:01:15;17.23;;;16.13;;
20954;SDS011;10636;19.390;-99.256;2023-09-18T05:03:56;12.30;;;11.30;;
20954;SDS011;10636;19.390;-99.256;2023-09-18T05:06:25;12.60;;;11.60;;
20954;SDS011;10636;19.390;-99.256;2023-09-18T05:08:55;12.77;;;11.63;;
20954;SDS011;10636;19.390;-99.256;2023-09-18T05:11:24;16.75;;;15.65;;
20954;SDS011;10636;19.390;-99.256;2023-09-18T05:13:53;15.93;;;14.82;;
20954;SDS011;10636;19.390;-99.256;2023-09-18T05:16:22;16.40;;;15.38;;
20954;SDS011;10636;19.390;-99.256;2023-09-18T05:18:51;16.23;;;15.10;;
20954;SDS011;10636;19.390;-99.256;2023-09-18T05:21:22;17.83;;;16.63;;
20954;SDS011;10636;19.390;-99.256;2023-09-18T05:23:52;16.40;;;15.30;;
20954;SDS011;10636;19.390;-99.256;2023-09-18T05:26:21;16.80;;;15.70;;
20954;SDS011;10636;19.390;-99.256;2023-09-18T05:28:51;16.15;;;15.02;;
20954;SDS011;10636;19.390;-99.256;2023-09-18T05:31:20;11.70;;;10.70;;
20954;SDS011;10636;19.390;-99.256;2023-09-18T05:33:50;11.77;;;10.77;;
20954;SDS011;10636;19.390;-99.256;2023-09-18T05:36:19;16.17;;;15.07;;
20954;SDS011;10636;19.390;-99.256;2023-09-18T05:38:50;11.68;;;10.68;;
20954;SDS011;10636;19.390;-99.256;2023-09-18T05:41:19;11.48;;;10.48;;
20954;SDS011;10636;19.390;-99.256;2023-09-18T05:43:51;14.90;;;13.93;;
20954;SDS011;10636;19.390;-99.256;2023-09-18T05:46:20;15.63;;;14.63;;
20954;SDS011;10636;19.390;-99.256;2023-09-18T05:48:49;15.20;;;14.10;;
20954;SDS011;10636;19.390;-99.256;2023-09-18T05:51:22;14.90;;;13.90;;
20954;SDS011;10636;19.390;-99.256;2023-09-18T05:53:53;11.50;;;10.50;;
20954;SDS011;10636;19.390;-99.256;2023-09-18T05:56:22;11.68;;;10.57;;
20954;SDS011;10636;19.390;-99.256;2023-09-18T05:58:51;11.43;;;10.52;;
20954;SDS011;10636;19.390;-99.256;2023-09-18T06:01:22;14.77;;;13.73;;
20954;SDS011;10636;19.390;-99.256;2023-09-18T06:03:51;15.65;;;14.55;;
20954;SDS011;10636;19.390;-99.256;2023-09-18T06:06:20;11.82;;;10.82;;
20954;SDS011;10636;19.390;-99.256;2023-09-18T06:08:51;11.50;;;10.55;;
20954;SDS011;10636;19.390;-99.256;2023-09-18T06:11:22;14.95;;;13.95;;
20954;SDS011;10636;19.390;-99.256;2023-09-18T06:13:52;14.93;;;13.93;;
20954;SDS011;10636;19.390;-99.256;2023-09-18T06:16:21;15.50;;;14.30;;
20954;SDS011;10636;19.390;-99.256;2023-09-18T06:18:50;15.75;;;14.65;;
20954;SDS011;10636;19.390;-99.256;2023-09-18T06:21:21;14.57;;;13.50;;
20954;SDS011;10636;19.390;-99.256;2023-09-18T06:23:50;15.15;;;14.25;;
20954;SDS011;10636;19.390;-99.256;2023-09-18T06:26:21;11.55;;;10.45;;
20954;SDS011;10636;19.390;-99.256;2023-09-18T06:28:50;10.80;;;9.88;;
20954;SDS011;10636;19.390;-99.256;2023-09-18T06:31:20;14.20;;;13.30;;
20954;SDS011;10636;19.390;-99.256;2023-09-18T06:33:50;14.48;;;13.48;;
20954;SDS011;10636;19.390;-99.256;2023-09-18T06:36:19;14.02;;;13.13;;
20954;SDS011;10636;19.390;-99.256;2023-09-18T06:38:48;14.40;;;13.50;;
20954;SDS011;10636;19.390;-99.256;2023-09-18T06:41:17;14.02;;;13.13;;
20954;SDS011;10636;19.390;-99.256;2023-09-18T06:43:51;10.55;;;9.65;;
20954;SDS011;10636;19.390;-99.256;2023-09-18T06:46:20;10.68;;;9.80;;
20954;SDS011;10636;19.390;-99.256;2023-09-18T06:48:49;14.23;;;13.23;;
20954;SDS011;10636;19.390;-99.256;2023-09-18T06:51:18;10.18;;;9.35;;
20954;SDS011;10636;19.390;-99.256;2023-09-18T06:53:47;10.73;;;9.82;;
20954;SDS011;10636;19.390;-99.256;2023-09-18T06:56:16;13.93;;;13.02;;
20954;SDS011;10636;19.390;-99.256;2023-09-18T06:58:45;9.70;;;8.90;;
20954;SDS011;10636;19.390;-99.256;2023-09-18T07:01:18;10.38;;;9.57;;
20954;SDS011;10636;19.390;-99.256;2023-09-18T07:03:48;9.85;;;9.05;;
20954;SDS011;10636;19.390;-99.256;2023-09-18T07:06:17;12.98;;;12.18;;
20954;SDS011;10636;19.390;-99.256;2023-09-18T07:08:46;12.75;;;11.95;;
20954;SDS011;10636;19.390;-99.256;2023-09-18T07:11:16;13.43;;;12.57;;
20954;SDS011;10636;19.390;-99.256;2023-09-18T07:13:45;12.70;;;11.80;;
20954;SDS011;10636;19.390;-99.256;2023-09-18T07:16:14;9.50;;;8.80;;
20954;SDS011;10636;19.390;-99.256;2023-09-18T07:18:45;9.43;;;8.73;;
20954;SDS011;10636;19.390;-99.256;2023-09-18T07:21:14;9.35;;;8.60;;
20954;SDS011;10636;19.390;-99.256;2023-09-18T07:23:45;9.30;;;8.57;;
20954;SDS011;10636;19.390;-99.256;2023-09-18T07:26:14;8.98;;;8.27;;
20954;SDS011;10636;19.390;-99.256;2023-09-18T07:28:43;12.50;;;11.70;;
20954;SDS011;10636;19.390;-99.256;2023-09-18T07:31:13;9.48;;;8.68;;
20954;SDS011;10636;19.390;-99.256;2023-09-18T07:33:42;9.15;;;8.35;;
20954;SDS011;10636;19.390;-99.256;2023-09-18T07:36:14;12.73;;;11.82;;
20954;SDS011;10636;19.390;-99.256;2023-09-18T07:38:43;11.85;;;11.10;;
20954;SDS011;10636;19.390;-99.256;2023-09-18T07:41:13;11.38;;;10.60;;
20954;SDS011;10636;19.390;-99.256;2023-09-18T07:43:43;12.95;;;12.20;;
20954;SDS011;10636;19.390;-99.256;2023-09-18T07:46:12;13.57;;;12.77;;
20954;SDS011;10636;19.390;-99.256;2023-09-18T07:48:41;12.27;;;11.57;;
20954;SDS011;10636;19.390;-99.256;2023-09-18T07:51:12;12.15;;;11.43;;
20954;SDS011;10636;19.390;-99.256;2023-09-18T07:53:42;11.88;;;11.18;;
20954;SDS011;10636;19.390;-99.256;2023-09-18T07:56:11;13.05;;;12.25;;
20954;SDS011;10636;19.390;-99.256;2023-09-18T07:58:40;12.02;;;11.23;;
20954;SDS011;10636;19.390;-99.256;2023-09-18T08:01:09;8.20;;;7.50;;
20954;SDS011;10636;19.390;-99.256;2023-09-18T08:03:38;12.10;;;11.30;;
20954;SDS011;10636;19.390;-99.256;2023-09-18T08:06:07;7.95;;;7.35;;
20954;SDS011;10636;19.390;-99.256;2023-09-18T08:08:39;8.00;;;7.40;;
20954;SDS011;10636;19.390;-99.256;2023-09-18T08:11:08;7.80;;;7.20;;
20954;SDS011;10636;19.390;-99.256;2023-09-18T08:13:37;11.82;;;11.13;;
20954;SDS011;10636;19.390;-99.256;2023-09-18T08:16:06;11.73;;;11.02;;
20954;SDS011;10636;19.390;-99.256;2023-09-18T08:18:36;11.65;;;10.95;;
20954;SDS011;10636;19.390;-99.256;2023-09-18T08:21:06;11.57;;;10.88;;
20954;SDS011;10636;19.390;-99.256;2023-09-18T08:23:36;11.98;;;11.27;;
20954;SDS011;10636;19.390;-99.256;2023-09-18T08:26:07;12.05;;;11.35;;
20954;SDS011;10636;19.390;-99.256;2023-09-18T08:28:36;10.63;;;10.02;;
20954;SDS011;10636;19.390;-99.256;2023-09-18T08:31:09;12.23;;;11.45;;
20954;SDS011;10636;19.390;-99.256;2023-09-18T08:33:38;10.93;;;10.23;;
20954;SDS011;10636;19.390;-99.256;2023-09-18T08:36:07;10.82;;;10.18;;
20954;SDS011;10636;19.390;-99.256;2023-09-18T08:38:37;12.00;;;11.30;;
20954;SDS011;10636;19.390;-99.256;2023-09-18T08:41:07;7.85;;;7.25;;
20954;SDS011;10636;19.390;-99.256;2023-09-18T08:43:37;7.85;;;7.25;;
20954;SDS011;10636;19.390;-99.256;2023-09-18T08:46:10;7.88;;;7.28;;
20954;SDS011;10636;19.390;-99.256;2023-09-18T08:48:40;8.00;;;7.30;;
20954;SDS011;10636;19.390;-99.256;2023-09-18T08:51:10;7.32;;;6.75;;
20954;SDS011;10636;19.390;-99.256;2023-09-18T08:53:40;10.43;;;9.80;;
20954;SDS011;10636;19.390;-99.256;2023-09-18T08:56:11;7.70;;;7.10;;
20954;SDS011;10636;19.390;-99.256;2023-09-18T08:58:41;11.40;;;10.77;;
20954;SDS011;10636;19.390;-99.256;2023-09-18T09:01:11;7.70;;;7.10;;
20954;SDS011;10636;19.390;-99.256;2023-09-18T09:03:40;7.90;;;7.25;;
20954;SDS011;10636;19.390;-99.256;2023-09-18T09:06:11;12.48;;;11.68;;
20954;SDS011;10636;19.390;-99.256;2023-09-18T09:08:40;12.10;;;11.40;;
20954;SDS011;10636;19.390;-99.256;2023-09-18T09:11:11;12.07;;;11.38;;
20954;SDS011;10636;19.390;-99.256;2023-09-18T09:13:40;12.23;;;11.52;;
20954;SDS011;10636;19.390;-99.256;2023-09-18T09:16:11;7.53;;;6.93;;
20954;SDS011;10636;19.390;-99.256;2023-09-18T09:18:47;7.72;;;7.13;;
20954;SDS011;10636;19.390;-99.256;2023-09-18T09:21:17;7.80;;;7.20;;
20954;SDS011;10636;19.390;-99.256;2023-09-18T09:23:46;11.32;;;10.63;;
20954;SDS011;10636;19.390;-99.256;2023-09-18T09:26:20;11.90;;;11.20;;
20954;SDS011;10636;19.390;-99.256;2023-09-18T09:28:50;11.38;;;10.68;;
20954;SDS011;10636;19.390;-99.256;2023-09-18T09:31:25;12.38;;;11.68;;
20954;SDS011;10636;19.390;-99.256;2023-09-18T09:33:56;12.65;;;11.85;;
20954;SDS011;10636;19.390;-99.256;2023-09-18T09:36:27;12.07;;;11.38;;
20954;SDS011;10636;19.390;-99.256;2023-09-18T09:38:56;12.57;;;11.88;;
20954;SDS011;10636;19.390;-99.256;2023-09-18T09:41:27;12.48;;;11.70;;
20954;SDS011;10636;19.390;-99.256;2023-09-18T09:43:59;7.78;;;7.13;;
20954;SDS011;10636;19.390;-99.256;2023-09-18T09:46:28;12.07;;;11.38;;
20954;SDS011;10636;19.390;-99.256;2023-09-18T09:48:58;7.72;;;7.13;;
20954;SDS011;10636;19.390;-99.256;2023-09-18T09:51:28;7.50;;;6.90;;
20954;SDS011;10636;19.390;-99.256;2023-09-18T09:53:57;7.22;;;6.68;;
20954;SDS011;10636;19.390;-99.256;2023-09-18T09:56:44;11.48;;;10.77;;
20954;SDS011;10636;19.390;-99.256;2023-09-18T09:59:16;7.32;;;6.72;;
20954;SDS011;10636;19.390;-99.256;2023-09-18T10:01:47;7.82;;;7.20;;
20954;SDS011;10636;19.390;-99.256;2023-09-18T10:04:17;7.20;;;6.65;;
20954;SDS011;10636;19.390;-99.256;2023-09-18T10:06:50;7.65;;;7.05;;
20954;SDS011;10636;19.390;-99.256;2023-09-18T10:09:20;7.28;;;6.70;;
20954;SDS011;10636;19.390;-99.256;2023-09-18T10:11:52;7.35;;;6.80;;
20954;SDS011;10636;19.390;-99.256;2023-09-18T10:14:23;11.88;;;11.13;;
20954;SDS011;10636;19.390;-99.256;2023-09-18T10:16:59;7.60;;;7.00;;
20954;SDS011;10636;19.390;-99.256;2023-09-18T10:19:39;7.22;;;6.72;;
20954;SDS011;10636;19.390;-99.256;2023-09-18T10:22:21;11.18;;;10.48;;
20954;SDS011;10636;19.390;-99.256;2023-09-18T10:25:08;11.60;;;10.90;;
20954;SDS011;10636;19.390;-99.256;2023-09-18T10:27:44;11.85;;;11.15;;
20954;SDS011;10636;19.390;-99.256;2023-09-18T10:30:14;7.88;;;7.28;;
20954;SDS011;10636;19.390;-99.256;2023-09-18T10:32:44;7.82;;;7.22;;
20954;SDS011;10636;19.390;-99.256;2023-09-18T10:35:13;12.05;;;11.35;;
20954;SDS011;10636;19.390;-99.256;2023-09-18T10:37:42;11.60;;;10.90;;
20954;SDS011;10636;19.390;-99.256;2023-09-18T10:40:12;12.32;;;11.63;;
20954;SDS011;10636;19.390;-99.256;2023-09-18T10:42:41;12.68;;;11.98;;
20954;SDS011;10636;19.390;-99.256;2023-09-18T10:45:11;12.98;;;12.23;;
20954;SDS011;10636;19.390;-99.256;2023-09-18T10:47:42;12.18;;;11.38;;
20954;SDS011;10636;19.390;-99.256;2023-09-18T10:50:12;13.18;;;12.38;;
20954;SDS011;10636;19.390;-99.256;2023-09-18T10:52:51;12.45;;;11.65;;
20954;SDS011;10636;19.390;-99.256;2023-09-18T10:55:20;12.45;;;11.75;;
20954;SDS011;10636;19.390;-99.256;2023-09-18T10:57:50;12.68;;;11.88;;
20954;SDS011;10636;19.390;-99.256;2023-09-18T11:00:21;11.93;;;11.23;;
20954;SDS011;10636;19.390;-99.256;2023-09-18T11:02:53;12.68;;;11.90;;
20954;SDS011;10636;19.390;-99.256;2023-09-18T11:05:36;12.00;;;11.20;;
20954;SDS011;10636;19.390;-99.256;2023-09-18T11:11:00;10.90;;;10.30;;
20954;SDS011;10636;19.390;-99.256;2023-09-18T11:13:38;11.88;;;11.18;;
20954;SDS011;10636;19.390;-99.256;2023-09-18T11:16:33;11.10;;;10.40;;
20954;SDS011;10636;19.390;-99.256;2023-09-18T11:19:08;11.20;;;10.48;;
20954;SDS011;10636;19.390;-99.256;2023-09-18T11:21:39;7.35;;;6.75;;
20954;SDS011;10636;19.390;-99.256;2023-09-18T11:24:15;7.82;;;7.22;;
20954;SDS011;10636;19.390;-99.256;2023-09-18T11:26:45;7.78;;;7.18;;
20954;SDS011;10636;19.390;-99.256;2023-09-18T11:29:14;7.30;;;6.70;;
20954;SDS011;10636;19.390;-99.256;2023-09-18T11:31:49;7.10;;;6.50;;
20954;SDS011;10636;19.390;-99.256;2023-09-18T11:34:22;11.57;;;10.88;;
20954;SDS011;10636;19.390;-99.256;2023-09-18T11:36:53;7.35;;;6.78;;
20954;SDS011;10636;19.390;-99.256;2023-09-18T11:39:35;11.63;;;11.00;;
20954;SDS011;10636;19.390;-99.256;2023-09-18T11:42:07;12.18;;;11.38;;
20954;SDS011;10636;19.390;-99.256;2023-09-18T11:44:37;7.80;;;7.20;;
20954;SDS011;10636;19.390;-99.256;2023-09-18T11:47:13;12.02;;;11.32;;
20954;SDS011;10636;19.390;-99.256;2023-09-18T11:49:47;11.77;;;11.07;;
20954;SDS011;10636;19.390;-99.256;2023-09-18T11:52:23;12.25;;;11.27;;
20954;SDS011;10636;19.390;-99.256;2023-09-18T11:54:53;12.45;;;11.45;;
20954;SDS011;10636;19.390;-99.256;2023-09-18T11:57:24;8.80;;;8.00;;
20954;SDS011;10636;19.390;-99.256;2023-09-18T11:59:54;12.82;;;11.73;;
20954;SDS011;10636;19.390;-99.256;2023-09-18T12:02:27;8.32;;;7.50;;
20954;SDS011;10636;19.390;-99.256;2023-09-18T12:05:04;12.38;;;11.27;;
20954;SDS011;10636;19.390;-99.256;2023-09-18T12:07:37;20.35;;;18.33;;
20954;SDS011;10636;19.390;-99.256;2023-09-18T12:10:09;19.77;;;17.88;;
20954;SDS011;10636;19.390;-99.256;2023-09-18T12:12:38;19.98;;;18.00;;
20954;SDS011;10636;19.390;-99.256;2023-09-18T12:15:10;22.50;;;20.80;;
20954;SDS011;10636;19.390;-99.256;2023-09-18T12:17:41;17.65;;;16.05;;
20954;SDS011;10636;19.390;-99.256;2023-09-18T12:20:15;21.63;;;19.92;;
20954;SDS011;10636;19.390;-99.256;2023-09-18T12:22:47;23.00;;;21.20;;
20954;SDS011;10636;19.390;-99.256;2023-09-18T12:25:16;17.00;;;15.30;;
20954;SDS011;10636;19.390;-99.256;2023-09-18T12:27:45;16.60;;;15.10;;
20954;SDS011;10636;19.390;-99.256;2023-09-18T12:30:18;20.15;;;18.65;;
20954;SDS011;10636;19.390;-99.256;2023-09-18T12:32:50;20.48;;;18.98;;
20954;SDS011;10636;19.390;-99.256;2023-09-18T12:35:19;20.77;;;19.27;;
20954;SDS011;10636;19.390;-99.256;2023-09-18T12:37:48;19.70;;;18.20;;
20954;SDS011;10636;19.390;-99.256;2023-09-18T12:40:20;19.75;;;18.15;;
20954;SDS011;10636;19.390;-99.256;2023-09-18T12:42:53;19.15;;;17.73;;
20954;SDS011;10636;19.390;-99.256;2023-09-18T12:45:23;18.80;;;17.40;;
20954;SDS011;10636;19.390;-99.256;2023-09-18T12:47:55;18.52;;;17.13;;
20954;SDS011;10636;19.390;-99.256;2023-09-18T12:50:25;14.32;;;13.02;;
20954;SDS011;10636;19.390;-99.256;2023-09-18T12:53:05;14.50;;;13.05;;
20954;SDS011;10636;19.390;-99.256;2023-09-18T12:55:34;17.33;;;16.13;;
20954;SDS011;10636;19.390;-99.256;2023-09-18T12:58:04;17.33;;;16.13;;
20954;SDS011;10636;19.390;-99.256;2023-09-18T13:00:33;12.05;;;11.05;;
20954;SDS011;10636;19.390;-99.256;2023-09-18T13:03:04;13.23;;;12.02;;
20954;SDS011;10636;19.390;-99.256;2023-09-18T13:05:33;12.07;;;10.88;;
20954;SDS011;10636;19.390;-99.256;2023-09-18T13:08:02;16.13;;;15.02;;
20954;SDS011;10636;19.390;-99.256;2023-09-18T13:10:40;15.40;;;14.13;;
20954;SDS011;10636;19.390;-99.256;2023-09-18T13:13:15;15.13;;;14.02;;
20954;SDS011;10636;19.390;-99.256;2023-09-18T13:15:45;15.95;;;14.85;;
20954;SDS011;10636;19.390;-99.256;2023-09-18T13:18:18;16.58;;;15.35;;
20954;SDS011;10636;19.390;-99.256;2023-09-18T13:20:50;16.08;;;15.05;;
20954;SDS011;10636;19.390;-99.256;2023-09-18T13:23:19;15.52;;;14.43;;
20954;SDS011;10636;19.390;-99.256;2023-09-18T13:25:47;15.15;;;13.98;;
20954;SDS011;10636;19.390;-99.256;2023-09-18T13:28:16;14.43;;;13.38;;
20954;SDS011;10636;19.390;-99.256;2023-09-18T13:30:46;11.32;;;10.18;;
20954;SDS011;10636;19.390;-99.256;2023-09-18T13:33:16;14.98;;;13.90;;
20954;SDS011;10636;19.390;-99.256;2023-09-18T13:35:45;15.35;;;14.07;;
20954;SDS011;10636;19.390;-99.256;2023-09-18T13:38:14;12.15;;;10.93;;
20954;SDS011;10636;19.390;-99.256;2023-09-18T13:40:42;12.10;;;11.02;;
20954;SDS011;10636;19.390;-99.256;2023-09-18T13:43:13;17.55;;;16.20;;
20954;SDS011;10636;19.390;-99.256;2023-09-18T13:45:44;16.67;;;15.45;;
20954;SDS011;10636;19.390;-99.256;2023-09-18T13:48:12;15.75;;;14.55;;
20954;SDS011;10636;19.390;-99.256;2023-09-18T13:50:43;18.25;;;16.55;;
20954;SDS011;10636;19.390;-99.256;2023-09-18T13:53:13;17.52;;;16.33;;
20954;SDS011;10636;19.390;-99.256;2023-09-18T13:55:41;17.45;;;16.23;;
20954;SDS011;10636;19.390;-99.256;2023-09-18T13:58:10;18.67;;;17.30;;
20954;SDS011;10636;19.390;-99.256;2023-09-18T14:00:38;17.73;;;16.33;;
20954;SDS011;10636;19.390;-99.256;2023-09-18T14:03:09;14.00;;;12.63;;
20954;SDS011;10636;19.390;-99.256;2023-09-18T14:05:40;14.38;;;13.07;;
20954;SDS011;10636;19.390;-99.256;2023-09-18T14:08:11;14.52;;;13.15;;
20954;SDS011;10636;19.390;-99.256;2023-09-18T14:10:39;14.55;;;13.15;;
20954;SDS011;10636;19.390;-99.256;2023-09-18T14:13:08;17.75;;;16.48;;
20954;SDS011;10636;19.390;-99.256;2023-09-18T14:15:37;14.20;;;13.00;;
20954;SDS011;10636;19.390;-99.256;2023-09-18T14:18:09;15.32;;;13.88;;
20954;SDS011;10636;19.390;-99.256;2023-09-18T14:20:38;14.30;;;13.00;;
20954;SDS011;10636;19.390;-99.256;2023-09-18T14:23:09;18.27;;;16.88;;